createdAt,value
2018-08-28T00:00:28.036Z,27.10
2018-08-28T00:01:27.584Z,27.10
2018-08-28T00:02:05.891Z,27.10
2018-08-28T00:02:43.993Z,27.10
2018-08-28T00:03:22.134Z,27.10
2018-08-28T00:04:00.102Z,27.10
2018-08-28T00:04:38.044Z,27.10
2018-08-28T00:05:17.444Z,27.20
2018-08-28T00:05:57.278Z,27.20
2018-08-28T00:06:35.237Z,27.20
2018-08-28T00:07:13.256Z,27.20
2018-08-28T00:07:51.164Z,27.20
2018-08-28T00:08:29.013Z,27.20
2018-08-28T00:09:08.155Z,27.20
2018-08-28T00:09:46.545Z,27.20
2018-08-28T00:10:24.571Z,27.20
2018-08-28T00:11:02.536Z,27.20
2018-08-28T00:11:40.339Z,27.20
2018-08-28T00:12:18.386Z,27.20
2018-08-28T00:12:56.340Z,27.20
2018-08-28T00:13:34.311Z,27.20
2018-08-28T00:14:18.214Z,27.20
2018-08-28T00:14:56.236Z,27.20
2018-08-28T00:15:34.894Z,27.20
2018-08-28T00:16:12.793Z,27.30
2018-08-28T00:16:50.809Z,27.30
2018-08-28T00:17:28.737Z,27.30
2018-08-28T00:18:07.260Z,27.30
2018-08-28T00:18:45.463Z,27.20
2018-08-28T00:19:23.492Z,27.30
2018-08-28T00:20:01.424Z,27.30
2018-08-28T00:20:40.305Z,27.30
2018-08-28T00:21:19.224Z,27.30
2018-08-28T00:21:57.259Z,27.30
2018-08-28T00:22:35.765Z,27.30
2018-08-28T00:23:13.978Z,27.30
2018-08-28T00:23:51.944Z,27.30
2018-08-28T00:24:29.858Z,27.30
2018-08-28T00:25:07.815Z,27.30
2018-08-28T00:25:45.724Z,27.30
2018-08-28T00:26:23.577Z,27.30
2018-08-28T00:27:02.028Z,27.30
2018-08-28T00:27:39.909Z,27.30
2018-08-28T00:28:17.866Z,27.30
2018-08-28T00:28:55.873Z,27.30
2018-08-28T00:29:33.839Z,27.30
2018-08-28T00:30:11.945Z,27.30
2018-08-28T00:30:49.976Z,27.30
2018-08-28T00:31:29.930Z,27.30
2018-08-28T00:32:07.817Z,27.30
2018-08-28T00:32:45.798Z,27.30
2018-08-28T00:33:23.730Z,27.30
2018-08-28T00:34:01.594Z,27.30
2018-08-28T00:34:39.498Z,27.30
2018-08-28T00:35:17.417Z,27.30
2018-08-28T00:35:56.033Z,27.30
2018-08-28T00:36:33.959Z,27.40
2018-08-28T00:37:11.993Z,27.40
2018-08-28T00:37:49.864Z,27.40
2018-08-28T00:38:27.617Z,27.40
2018-08-28T00:39:05.743Z,27.40
2018-08-28T00:39:44.474Z,27.40
2018-08-28T00:40:23.018Z,27.40
2018-08-28T00:41:00.993Z,27.40
2018-08-28T00:41:38.946Z,27.40
2018-08-28T00:42:16.874Z,27.50
2018-08-28T00:42:55.810Z,27.40
2018-08-28T00:43:33.683Z,27.50
2018-08-28T00:44:11.719Z,27.40
2018-08-28T00:44:51.693Z,27.50
2018-08-28T00:45:29.562Z,27.50
2018-08-28T00:46:07.397Z,27.50
2018-08-28T00:46:45.405Z,27.50
2018-08-28T00:47:23.411Z,27.50
2018-08-28T00:48:01.315Z,27.50
2018-08-28T00:48:39.466Z,27.50
2018-08-28T00:49:17.357Z,27.50
2018-08-28T00:49:55.268Z,27.50
2018-08-28T00:50:33.313Z,27.60
2018-08-28T00:51:11.362Z,27.50
2018-08-28T00:51:49.306Z,27.50
2018-08-28T00:52:27.535Z,27.50
2018-08-28T00:53:05.952Z,27.50
2018-08-28T00:53:44.084Z,27.50
2018-08-28T00:54:22.307Z,27.50
2018-08-28T00:55:00.576Z,27.50
2018-08-28T00:55:39.826Z,27.50
2018-08-28T00:56:18.283Z,27.50
2018-08-28T00:56:56.587Z,27.50
2018-08-28T00:57:35.407Z,27.60
2018-08-28T00:58:13.916Z,27.60
2018-08-28T00:58:52.558Z,27.60
2018-08-28T00:59:30.997Z,27.60
2018-08-28T01:00:10.195Z,27.60
2018-08-28T01:00:48.882Z,27.60
2018-08-28T01:01:29.186Z,27.60
2018-08-28T01:02:07.882Z,27.70
2018-08-28T01:02:46.560Z,27.80
2018-08-28T01:03:25.357Z,27.80
2018-08-28T01:04:03.993Z,27.80
2018-08-28T01:04:42.609Z,27.80
2018-08-28T01:05:23.296Z,27.90
2018-08-28T01:06:03.334Z,28.00
2018-08-28T01:06:42.168Z,28.00
2018-08-28T01:07:20.718Z,28.00
2018-08-28T01:07:59.320Z,27.90
2018-08-28T01:08:38.008Z,27.90
2018-08-28T01:09:17.543Z,27.90
2018-08-28T01:09:57.057Z,27.90
2018-08-28T01:10:36.003Z,27.90
2018-08-28T01:11:14.613Z,27.90
2018-08-28T01:11:53.258Z,27.90
2018-08-28T01:12:32.661Z,27.90
2018-08-28T01:13:12.682Z,27.90
2018-08-28T01:13:51.320Z,27.90
2018-08-28T01:14:31.881Z,27.90
2018-08-28T01:15:15.622Z,27.90
2018-08-28T01:15:54.230Z,27.90
2018-08-28T01:16:33.816Z,27.90
2018-08-28T01:17:12.639Z,27.90
2018-08-28T01:17:51.397Z,27.90
2018-08-28T01:18:29.876Z,27.90
2018-08-28T01:19:08.811Z,27.80
2018-08-28T01:19:47.418Z,27.90
2018-08-28T01:20:27.132Z,27.90
2018-08-28T01:21:05.802Z,27.90
2018-08-28T01:21:44.462Z,27.90
2018-08-28T01:22:23.662Z,27.90
2018-08-28T01:23:02.293Z,27.90
2018-08-28T01:23:41.358Z,27.90
2018-08-28T01:24:19.983Z,27.90
2018-08-28T01:24:58.671Z,27.90
2018-08-28T01:25:37.077Z,27.90
2018-08-28T01:26:15.644Z,27.90
2018-08-28T01:26:53.955Z,27.90
2018-08-28T01:27:32.022Z,27.90
2018-08-28T01:28:10.692Z,27.90
2018-08-28T01:28:48.763Z,28.00
2018-08-28T01:29:26.672Z,27.90
2018-08-28T01:30:04.656Z,27.90
2018-08-28T01:30:42.567Z,27.90
2018-08-28T01:31:20.466Z,28.00
2018-08-28T01:31:58.376Z,28.00
2018-08-28T01:32:36.369Z,28.00
2018-08-28T01:33:14.426Z,28.00
2018-08-28T01:33:52.348Z,28.00
2018-08-28T01:34:30.301Z,28.00
2018-08-28T01:35:08.926Z,28.00
2018-08-28T01:35:46.896Z,28.00
2018-08-28T01:36:24.801Z,28.00
2018-08-28T01:37:02.820Z,28.00
2018-08-28T01:37:40.842Z,28.00
2018-08-28T01:38:18.726Z,28.00
2018-08-28T01:38:56.674Z,28.10
2018-08-28T01:39:34.891Z,28.00
2018-08-28T01:40:12.974Z,28.10
2018-08-28T01:40:52.035Z,28.10
2018-08-28T01:41:29.982Z,28.10
2018-08-28T01:42:08.103Z,28.10
2018-08-28T01:42:46.134Z,28.10
2018-08-28T01:43:25.424Z,28.00
2018-08-28T01:44:03.439Z,28.00
2018-08-28T01:44:41.532Z,28.00
2018-08-28T01:45:19.552Z,27.90
2018-08-28T01:45:57.449Z,28.00
2018-08-28T01:46:35.520Z,27.90
2018-08-28T01:47:13.330Z,27.90
2018-08-28T01:47:51.379Z,27.90
2018-08-28T01:48:30.101Z,27.90
2018-08-28T01:49:08.191Z,27.90
2018-08-28T01:49:46.538Z,27.90
2018-08-28T01:50:25.384Z,27.90
2018-08-28T01:51:04.430Z,27.90
2018-08-28T01:51:42.412Z,27.90
2018-08-28T01:52:20.541Z,27.90
2018-08-28T01:52:58.405Z,27.90
2018-08-28T01:53:36.461Z,27.90
2018-08-28T01:54:14.443Z,27.90
2018-08-28T01:54:52.557Z,27.90
2018-08-28T01:55:30.607Z,27.90
2018-08-28T01:56:08.553Z,27.90
2018-08-28T01:56:46.484Z,27.90
2018-08-28T01:57:24.536Z,27.90
2018-08-28T01:58:03.424Z,27.90
2018-08-28T01:58:41.250Z,27.90
2018-08-28T01:59:19.359Z,27.90
2018-08-28T01:59:57.255Z,27.90
2018-08-28T02:00:35.268Z,27.90
2018-08-28T02:01:13.247Z,27.90
2018-08-28T02:01:51.308Z,27.90
2018-08-28T02:02:29.321Z,27.90
2018-08-28T02:03:07.269Z,27.90
2018-08-28T02:03:45.276Z,27.90
2018-08-28T02:04:23.207Z,27.90
2018-08-28T02:05:01.199Z,27.90
2018-08-28T02:05:40.164Z,27.90
2018-08-28T02:06:19.076Z,27.90
2018-08-28T02:06:57.151Z,27.90
2018-08-28T02:07:35.188Z,27.90
2018-08-28T02:08:13.095Z,27.90
2018-08-28T02:08:51.873Z,27.90
2018-08-28T02:09:29.890Z,27.90
2018-08-28T02:10:08.039Z,27.90
2018-08-28T02:10:46.072Z,27.90
2018-08-28T02:11:24.159Z,27.90
2018-08-28T02:12:02.056Z,27.90
2018-08-28T02:12:40.037Z,27.90
2018-08-28T02:13:18.120Z,28.00
2018-08-28T02:13:56.184Z,27.90
2018-08-28T02:14:34.160Z,27.90
2018-08-28T02:15:12.153Z,27.90
2018-08-28T02:15:50.197Z,27.90
2018-08-28T02:16:28.193Z,27.90
2018-08-28T02:17:06.169Z,27.90
2018-08-28T02:17:44.078Z,28.00
2018-08-28T02:18:21.999Z,28.00
2018-08-28T02:19:00.521Z,28.00
2018-08-28T02:19:38.667Z,28.00
2018-08-28T02:20:16.643Z,28.00
2018-08-28T02:20:54.557Z,28.00
2018-08-28T02:21:32.540Z,28.00
2018-08-28T02:22:10.644Z,28.00
2018-08-28T02:22:48.727Z,28.00
2018-08-28T02:23:26.770Z,28.00
2018-08-28T02:24:04.962Z,28.00
2018-08-28T02:24:43.038Z,28.00
2018-08-28T02:25:20.921Z,28.00
2018-08-28T02:25:58.759Z,28.00
2018-08-28T02:26:36.855Z,28.00
2018-08-28T02:27:15.592Z,28.00
2018-08-28T02:27:53.573Z,28.00
2018-08-28T02:28:31.614Z,28.00
2018-08-28T02:29:09.527Z,28.00
2018-08-28T02:29:48.000Z,28.00
2018-08-28T02:30:25.958Z,28.10
2018-08-28T02:31:03.976Z,28.00
2018-08-28T02:31:41.963Z,28.00
2018-08-28T02:32:19.980Z,28.00
2018-08-28T02:32:57.966Z,28.00
2018-08-28T02:33:36.214Z,28.00
2018-08-28T02:34:14.278Z,28.00
2018-08-28T02:34:52.230Z,28.00
2018-08-28T02:35:33.399Z,28.00
2018-08-28T02:36:11.337Z,28.00
2018-08-28T02:36:49.299Z,28.10
2018-08-28T02:37:27.289Z,28.00
2018-08-28T02:38:05.293Z,28.10
2018-08-28T02:38:43.148Z,28.10
2018-08-28T02:39:21.044Z,28.10
2018-08-28T02:39:59.081Z,28.10
2018-08-28T02:40:36.975Z,28.10
2018-08-28T02:41:15.130Z,28.10
2018-08-28T02:41:53.136Z,28.10
2018-08-28T02:42:31.174Z,28.10
2018-08-28T02:43:09.208Z,28.10
2018-08-28T02:43:47.147Z,28.10
2018-08-28T02:44:25.169Z,28.20
2018-08-28T02:45:03.257Z,28.10
2018-08-28T02:45:41.473Z,28.10
2018-08-28T02:46:20.101Z,28.20
2018-08-28T02:46:58.074Z,28.20
2018-08-28T02:47:36.126Z,28.20
2018-08-28T02:48:14.117Z,28.20
2018-08-28T02:48:52.067Z,28.20
2018-08-28T02:49:30.036Z,28.20
2018-08-28T02:50:07.998Z,28.20
2018-08-28T02:50:45.946Z,28.20
2018-08-28T02:51:23.948Z,28.20
2018-08-28T02:52:01.859Z,28.20
2018-08-28T02:52:39.689Z,28.20
2018-08-28T02:53:17.783Z,28.20
2018-08-28T02:53:55.718Z,28.20
2018-08-28T02:54:33.861Z,28.20
2018-08-28T02:55:11.791Z,28.30
2018-08-28T02:55:49.803Z,28.20
2018-08-28T02:56:27.942Z,28.20
2018-08-28T02:57:05.889Z,28.30
2018-08-28T02:57:43.956Z,28.30
2018-08-28T02:58:21.865Z,28.30
2018-08-28T02:59:00.133Z,28.30
2018-08-28T02:59:38.036Z,28.30
2018-08-28T03:00:16.521Z,28.30
2018-08-28T03:00:54.440Z,28.30
2018-08-28T03:01:32.287Z,28.30
2018-08-28T03:02:10.452Z,28.30
2018-08-28T03:02:48.481Z,28.30
2018-08-28T03:03:26.498Z,28.30
2018-08-28T03:04:04.813Z,28.30
2018-08-28T03:04:42.855Z,28.30
2018-08-28T03:05:20.826Z,28.30
2018-08-28T03:05:58.831Z,28.40
2018-08-28T03:06:36.725Z,28.30
2018-08-28T03:07:15.559Z,28.30
2018-08-28T03:07:53.618Z,28.30
2018-08-28T03:08:31.521Z,28.30
2018-08-28T03:09:10.542Z,28.30
2018-08-28T03:09:48.461Z,28.30
2018-08-28T03:10:27.056Z,28.30
2018-08-28T03:11:05.982Z,28.30
2018-08-28T03:11:44.973Z,28.40
2018-08-28T03:12:22.982Z,28.40
2018-08-28T03:13:00.887Z,28.40
2018-08-28T03:13:38.933Z,28.40
2018-08-28T03:14:16.849Z,28.40
2018-08-28T03:14:54.858Z,28.40
2018-08-28T03:15:32.921Z,28.40
2018-08-28T03:16:11.146Z,28.40
2018-08-28T03:16:49.105Z,28.40
2018-08-28T03:17:27.577Z,28.40
2018-08-28T03:18:05.530Z,28.50
2018-08-28T03:18:43.504Z,28.40
2018-08-28T03:19:21.496Z,28.50
2018-08-28T03:19:59.429Z,28.50
2018-08-28T03:20:37.434Z,28.40
2018-08-28T03:21:15.537Z,28.50
2018-08-28T03:21:53.564Z,28.50
2018-08-28T03:22:31.577Z,28.40
2018-08-28T03:23:09.727Z,28.40
2018-08-28T03:23:47.624Z,28.40
2018-08-28T03:24:26.519Z,28.40
2018-08-28T03:25:04.454Z,28.40
2018-08-28T03:25:42.489Z,28.40
2018-08-28T03:26:20.492Z,28.50
2018-08-28T03:26:58.463Z,28.50
2018-08-28T03:27:36.434Z,28.50
2018-08-28T03:28:14.546Z,28.50
2018-08-28T03:28:52.598Z,28.50
2018-08-28T03:29:30.583Z,28.50
2018-08-28T03:30:08.521Z,28.50
2018-08-28T03:30:46.448Z,28.50
2018-08-28T03:31:24.575Z,28.60
2018-08-28T03:32:02.559Z,28.50
2018-08-28T03:32:40.625Z,28.50
2018-08-28T03:33:18.841Z,28.50
2018-08-28T03:33:56.856Z,28.50
2018-08-28T03:34:34.863Z,28.50
2018-08-28T03:35:12.885Z,28.50
2018-08-28T03:35:50.828Z,28.50
2018-08-28T03:36:28.856Z,28.60
2018-08-28T03:37:06.733Z,28.60
2018-08-28T03:37:44.885Z,28.60
2018-08-28T03:38:23.050Z,28.60
2018-08-28T03:39:01.259Z,28.60
2018-08-28T03:39:39.319Z,28.60
2018-08-28T03:40:17.454Z,28.60
2018-08-28T03:40:55.495Z,28.60
2018-08-28T03:41:34.897Z,28.60
2018-08-28T03:42:14.022Z,28.70
2018-08-28T03:42:52.294Z,28.60
2018-08-28T03:43:30.296Z,28.60
2018-08-28T03:44:08.159Z,28.60
2018-08-28T03:44:46.191Z,28.60
2018-08-28T03:45:24.227Z,28.60
2018-08-28T03:46:02.246Z,28.60
2018-08-28T03:46:40.512Z,28.60
2018-08-28T03:47:18.484Z,28.60
2018-08-28T03:47:56.456Z,28.60
2018-08-28T03:48:35.123Z,28.60
2018-08-28T03:49:13.021Z,28.70
2018-08-28T03:49:51.117Z,28.70
2018-08-28T03:50:29.132Z,28.70
2018-08-28T03:51:07.090Z,28.70
2018-08-28T03:51:45.156Z,28.70
2018-08-28T03:52:23.122Z,28.70
2018-08-28T03:53:01.104Z,28.70
2018-08-28T03:53:39.053Z,28.70
2018-08-28T03:54:17.023Z,28.70
2018-08-28T03:54:55.094Z,28.70
2018-08-28T03:55:33.449Z,28.70
2018-08-28T03:56:11.541Z,28.70
2018-08-28T03:56:49.504Z,28.70
2018-08-28T03:57:27.519Z,28.70
2018-08-28T03:58:05.435Z,28.70
2018-08-28T03:58:43.345Z,28.70
2018-08-28T03:59:21.402Z,28.70
2018-08-28T03:59:59.347Z,28.70
2018-08-28T04:00:37.423Z,28.70
2018-08-28T04:01:15.400Z,28.70
2018-08-28T04:01:53.342Z,28.80
2018-08-28T04:02:31.314Z,28.80
2018-08-28T04:03:09.184Z,28.80
2018-08-28T04:03:49.755Z,28.90
2018-08-28T04:04:27.881Z,28.80
2018-08-28T04:05:06.755Z,28.90
2018-08-28T04:05:44.599Z,28.90
2018-08-28T04:06:22.731Z,28.90
2018-08-28T04:07:00.762Z,28.90
2018-08-28T04:07:41.373Z,29.00
2018-08-28T04:08:19.268Z,28.90
2018-08-28T04:08:57.204Z,28.90
2018-08-28T04:09:35.121Z,28.90
2018-08-28T04:10:13.106Z,28.90
2018-08-28T04:10:51.231Z,28.90
2018-08-28T04:11:29.205Z,28.90
2018-08-28T04:12:07.169Z,28.90
2018-08-28T04:12:45.130Z,28.80
2018-08-28T04:13:23.043Z,28.80
2018-08-28T04:14:01.034Z,28.80
2018-08-28T04:14:38.960Z,28.80
2018-08-28T04:15:17.797Z,28.80
2018-08-28T04:15:55.771Z,28.80
2018-08-28T04:16:33.871Z,28.80
2018-08-28T04:17:11.901Z,28.80
2018-08-28T04:17:51.434Z,28.80
2018-08-28T04:18:29.346Z,28.80
2018-08-28T04:19:07.319Z,28.80
2018-08-28T04:19:45.295Z,28.80
2018-08-28T04:20:24.193Z,28.70
2018-08-28T04:21:47.154Z,28.80
2018-08-28T04:22:25.070Z,28.70
2018-08-28T04:23:03.927Z,28.70
2018-08-28T04:23:42.249Z,28.70
2018-08-28T04:24:20.246Z,28.70
2018-08-28T04:24:58.296Z,28.70
2018-08-28T04:25:38.657Z,28.70
2018-08-28T04:26:16.622Z,28.70
2018-08-28T04:26:54.626Z,28.70
2018-08-28T04:27:32.629Z,28.70
2018-08-28T04:28:11.284Z,28.70
2018-08-28T04:28:49.395Z,28.70
2018-08-28T04:29:28.321Z,28.70
2018-08-28T04:30:06.320Z,28.70
2018-08-28T04:30:45.901Z,28.70
2018-08-28T04:31:23.928Z,28.80
2018-08-28T04:32:01.977Z,28.80
2018-08-28T04:32:39.924Z,28.80
2018-08-28T04:33:18.861Z,28.80
2018-08-28T04:33:56.784Z,28.80
2018-08-28T04:34:35.003Z,28.80
2018-08-28T04:35:13.098Z,28.80
2018-08-28T04:35:51.014Z,28.80
2018-08-28T04:36:29.120Z,28.80
2018-08-28T04:37:07.171Z,28.80
2018-08-28T04:37:45.219Z,28.80
2018-08-28T04:38:23.180Z,28.80
2018-08-28T04:39:01.047Z,28.80
2018-08-28T04:39:39.006Z,28.90
2018-08-28T04:40:17.043Z,28.80
2018-08-28T04:40:54.961Z,28.80
2018-08-28T04:41:32.967Z,28.90
2018-08-28T04:42:10.911Z,28.90
2018-08-28T04:42:48.865Z,28.90
2018-08-28T04:43:26.984Z,28.90
2018-08-28T04:44:05.082Z,28.90
2018-08-28T04:44:43.063Z,28.90
2018-08-28T04:45:21.035Z,28.90
2018-08-28T04:45:58.921Z,28.90
2018-08-28T04:46:36.947Z,28.90
2018-08-28T04:47:14.983Z,28.90
2018-08-28T04:47:52.967Z,28.90
2018-08-28T04:48:35.213Z,28.90
2018-08-28T04:49:14.114Z,28.90
2018-08-28T04:49:53.929Z,28.90
2018-08-28T04:50:31.982Z,28.90
2018-08-28T04:51:10.081Z,28.90
2018-08-28T04:51:48.019Z,28.90
2018-08-28T04:52:25.947Z,28.90
2018-08-28T04:53:03.873Z,28.90
2018-08-28T04:53:41.966Z,28.90
2018-08-28T04:54:20.947Z,28.90
2018-08-28T04:54:59.015Z,28.90
2018-08-28T04:55:36.995Z,28.90
2018-08-28T04:56:17.720Z,28.90
2018-08-28T04:56:55.625Z,28.90
2018-08-28T04:57:33.692Z,28.90
2018-08-28T04:58:11.760Z,28.90
2018-08-28T04:58:50.278Z,28.90
2018-08-28T04:59:28.758Z,28.90
2018-08-28T05:00:07.163Z,28.90
2018-08-28T05:00:45.264Z,28.90
2018-08-28T05:01:23.970Z,28.90
2018-08-28T05:02:01.864Z,28.90
2018-08-28T05:02:40.951Z,28.90
2018-08-28T05:03:18.885Z,28.90
2018-08-28T05:03:56.744Z,28.90
2018-08-28T05:04:34.612Z,28.90
2018-08-28T05:05:12.809Z,28.90
2018-08-28T05:05:50.823Z,29.00
2018-08-28T05:06:28.715Z,29.00
2018-08-28T05:07:06.629Z,29.00
2018-08-28T05:07:44.598Z,29.00
2018-08-28T05:08:22.733Z,29.00
2018-08-28T05:09:00.694Z,29.00
2018-08-28T05:09:38.638Z,29.00
2018-08-28T05:10:16.596Z,29.00
2018-08-28T05:10:54.553Z,29.00
2018-08-28T05:11:32.533Z,29.00
2018-08-28T05:12:10.497Z,29.00
2018-08-28T05:12:48.541Z,29.00
2018-08-28T05:13:26.529Z,29.00
2018-08-28T05:14:04.599Z,29.00
2018-08-28T05:14:42.596Z,29.00
2018-08-28T05:15:21.599Z,29.00
2018-08-28T05:15:59.558Z,29.00
2018-08-28T05:16:37.609Z,29.00
2018-08-28T05:17:15.522Z,29.00
2018-08-28T05:17:53.490Z,29.00
2018-08-28T05:18:31.402Z,29.00
2018-08-28T05:19:09.346Z,29.00
2018-08-28T05:19:47.328Z,29.10
2018-08-28T05:20:25.322Z,29.10
2018-08-28T05:21:03.377Z,29.10
2018-08-28T05:21:41.502Z,29.10
2018-08-28T05:22:19.506Z,29.10
2018-08-28T05:22:57.345Z,29.10
2018-08-28T05:23:35.405Z,29.10
2018-08-28T05:24:13.380Z,29.10
2018-08-28T05:24:51.335Z,29.10
2018-08-28T05:25:29.334Z,29.10
2018-08-28T05:26:07.226Z,29.10
2018-08-28T05:26:45.390Z,29.10
2018-08-28T05:27:24.455Z,29.10
2018-08-28T05:28:02.596Z,29.10
2018-08-28T05:28:40.644Z,29.10
2018-08-28T05:29:18.564Z,29.10
2018-08-28T05:29:56.589Z,29.10
2018-08-28T05:30:34.651Z,29.10
2018-08-28T05:31:12.639Z,29.10
2018-08-28T05:31:50.493Z,29.10
2018-08-28T05:32:28.383Z,29.10
2018-08-28T05:33:06.496Z,29.10
2018-08-28T05:33:44.569Z,29.10
2018-08-28T05:34:22.583Z,29.20
2018-08-28T05:35:00.748Z,29.20
2018-08-28T05:35:39.034Z,29.20
2018-08-28T05:36:17.626Z,29.20
2018-08-28T05:36:55.748Z,29.20
2018-08-28T05:37:33.708Z,29.20
2018-08-28T05:38:11.760Z,29.20
2018-08-28T05:38:49.856Z,29.20
2018-08-28T05:39:27.884Z,29.20
2018-08-28T05:40:05.899Z,29.20
2018-08-28T05:40:44.193Z,29.20
2018-08-28T05:41:22.227Z,29.20
2018-08-28T05:42:00.332Z,29.20
2018-08-28T05:42:38.363Z,29.20
2018-08-28T05:43:16.352Z,29.20
2018-08-28T05:43:54.282Z,29.20
2018-08-28T05:44:32.243Z,29.20
2018-08-28T05:45:11.508Z,29.20
2018-08-28T05:45:49.470Z,29.20
2018-08-28T05:46:27.591Z,29.20
2018-08-28T05:47:05.790Z,29.20
2018-08-28T05:47:43.932Z,29.20
2018-08-28T05:48:22.205Z,29.20
2018-08-28T05:49:00.157Z,29.20
2018-08-28T05:49:38.197Z,29.30
2018-08-28T05:50:16.450Z,29.30
2018-08-28T05:50:54.335Z,29.30
2018-08-28T05:51:33.237Z,29.30
2018-08-28T05:52:11.499Z,29.30
2018-08-28T05:52:49.568Z,29.30
2018-08-28T05:53:27.655Z,29.30
2018-08-28T05:54:05.626Z,29.20
2018-08-28T05:54:43.591Z,29.20
2018-08-28T05:55:21.530Z,29.30
2018-08-28T05:56:00.119Z,29.30
2018-08-28T05:56:38.187Z,29.30
2018-08-28T05:57:16.044Z,29.30
2018-08-28T05:57:54.163Z,29.30
2018-08-28T05:58:32.155Z,29.30
2018-08-28T05:59:10.080Z,29.30
2018-08-28T05:59:48.132Z,29.40
2018-08-28T06:00:26.348Z,29.40
2018-08-28T06:01:05.103Z,29.40
2018-08-28T06:01:43.032Z,29.40
2018-08-28T06:02:21.077Z,29.40
2018-08-28T06:02:59.597Z,29.40
2018-08-28T06:03:37.646Z,29.40
2018-08-28T06:04:16.721Z,29.40
2018-08-28T06:04:54.745Z,29.40
2018-08-28T06:05:32.713Z,29.50
2018-08-28T06:06:10.925Z,29.50
2018-08-28T06:06:49.028Z,29.50
2018-08-28T06:07:27.047Z,29.60
2018-08-28T06:08:05.209Z,29.60
2018-08-28T06:08:43.175Z,29.70
2018-08-28T06:09:21.155Z,29.70
2018-08-28T06:09:59.068Z,29.70
2018-08-28T06:10:37.025Z,29.60
2018-08-28T06:11:15.112Z,29.70
2018-08-28T06:11:58.678Z,29.60
2018-08-28T06:12:37.351Z,29.70
2018-08-28T06:13:15.404Z,29.70
2018-08-28T06:13:53.298Z,29.70
2018-08-28T06:14:31.318Z,29.60
2018-08-28T06:15:09.443Z,29.60
2018-08-28T06:15:47.384Z,29.60
2018-08-28T06:16:25.448Z,29.70
2018-08-28T06:17:03.616Z,29.70
2018-08-28T06:17:41.528Z,29.70
2018-08-28T06:18:19.552Z,29.70
2018-08-28T06:18:57.714Z,29.70
2018-08-28T06:19:35.782Z,29.60
2018-08-28T06:20:18.099Z,29.70
2018-08-28T06:20:56.797Z,29.80
2018-08-28T06:21:34.732Z,29.70
2018-08-28T06:22:12.669Z,29.80
2018-08-28T06:22:50.629Z,29.70
2018-08-28T06:23:28.668Z,29.70
2018-08-28T06:24:06.648Z,29.70
2018-08-28T06:24:44.687Z,29.70
2018-08-28T06:25:22.744Z,29.70
2018-08-28T06:26:00.762Z,29.70
2018-08-28T06:26:38.896Z,29.70
2018-08-28T06:27:16.743Z,29.70
2018-08-28T06:27:54.778Z,29.80
2018-08-28T06:28:32.778Z,29.80
2018-08-28T06:29:11.249Z,29.80
2018-08-28T06:29:49.185Z,29.80
2018-08-28T06:30:27.271Z,29.80
2018-08-28T06:31:05.974Z,29.80
2018-08-28T06:31:43.866Z,29.80
2018-08-28T06:32:22.526Z,29.80
2018-08-28T06:33:00.472Z,29.80
2018-08-28T06:33:38.474Z,29.80
2018-08-28T06:34:16.813Z,29.80
2018-08-28T06:34:54.823Z,29.80
2018-08-28T06:35:32.719Z,29.80
2018-08-28T06:36:10.916Z,29.80
2018-08-28T06:36:48.987Z,29.80
2018-08-28T06:37:26.924Z,29.80
2018-08-28T06:38:05.042Z,29.80
2018-08-28T06:38:43.087Z,29.80
2018-08-28T06:39:20.962Z,29.80
2018-08-28T06:39:58.913Z,29.80
2018-08-28T06:40:36.925Z,29.80
2018-08-28T06:41:14.828Z,29.70
2018-08-28T06:41:53.781Z,29.70
2018-08-28T06:42:31.734Z,29.70
2018-08-28T06:43:09.761Z,29.70
2018-08-28T06:43:47.972Z,29.70
2018-08-28T06:44:25.844Z,29.70
2018-08-28T06:45:04.056Z,29.70
2018-08-28T06:45:42.107Z,29.60
2018-08-28T06:46:20.115Z,29.70
2018-08-28T06:46:58.150Z,29.70
2018-08-28T06:47:36.193Z,29.70
2018-08-28T06:48:14.887Z,29.70
2018-08-28T06:48:52.773Z,29.60
2018-08-28T06:49:30.795Z,29.60
2018-08-28T06:50:09.844Z,29.60
2018-08-28T06:50:47.752Z,29.60
2018-08-28T06:51:25.740Z,29.60
2018-08-28T06:52:03.858Z,29.60
2018-08-28T06:52:41.866Z,29.60
2018-08-28T06:53:19.861Z,29.70
2018-08-28T06:53:57.780Z,29.70
2018-08-28T06:54:35.649Z,29.70
2018-08-28T06:55:13.824Z,29.70
2018-08-28T06:55:51.724Z,29.70
2018-08-28T06:56:31.650Z,29.70
2018-08-28T06:57:09.720Z,29.70
2018-08-28T06:57:47.855Z,29.70
2018-08-28T06:58:26.174Z,29.70
2018-08-28T06:59:04.171Z,29.70
2018-08-28T06:59:42.192Z,29.70
2018-08-28T07:00:20.104Z,29.70
2018-08-28T07:00:58.073Z,29.70
2018-08-28T07:01:36.121Z,29.70
2018-08-28T07:02:14.258Z,29.70
2018-08-28T07:02:52.281Z,29.70
2018-08-28T07:03:30.221Z,29.60
2018-08-28T07:04:08.317Z,29.60
2018-08-28T07:04:47.168Z,29.60
2018-08-28T07:05:25.085Z,29.60
2018-08-28T07:06:03.057Z,29.60
2018-08-28T07:06:40.947Z,29.60
2018-08-28T07:07:19.840Z,29.60
2018-08-28T07:07:57.898Z,29.70
2018-08-28T07:08:36.050Z,29.60
2018-08-28T07:09:14.113Z,29.60
2018-08-28T07:09:52.147Z,29.60
2018-08-28T07:10:30.066Z,29.70
2018-08-28T07:11:08.169Z,29.70
2018-08-28T07:11:46.118Z,29.70
2018-08-28T07:12:24.094Z,29.70
2018-08-28T07:13:02.164Z,29.70
2018-08-28T07:13:40.492Z,29.70
2018-08-28T07:14:18.385Z,29.70
2018-08-28T07:14:56.792Z,29.70
2018-08-28T07:15:35.019Z,29.70
2018-08-28T07:16:12.964Z,29.70
2018-08-28T07:16:50.857Z,29.80
2018-08-28T07:17:29.009Z,29.80
2018-08-28T07:18:06.987Z,29.80
2018-08-28T07:18:45.012Z,29.80
2018-08-28T07:19:23.031Z,29.80
2018-08-28T07:20:01.062Z,29.80
2018-08-28T07:20:39.096Z,29.80
2018-08-28T07:21:17.060Z,29.70
2018-08-28T07:21:54.950Z,29.70
2018-08-28T07:22:34.130Z,29.70
2018-08-28T07:23:12.554Z,29.70
2018-08-28T07:23:50.608Z,29.70
2018-08-28T07:24:28.947Z,29.70
2018-08-28T07:25:07.794Z,29.80
2018-08-28T07:25:45.850Z,29.80
2018-08-28T07:26:23.999Z,29.70
2018-08-28T07:27:01.906Z,29.70
2018-08-28T07:27:40.225Z,29.80
2018-08-28T07:28:18.113Z,29.80
2018-08-28T07:28:56.053Z,29.80
2018-08-28T07:29:34.022Z,29.80
2018-08-28T07:30:11.977Z,29.80
2018-08-28T07:30:50.016Z,29.80
2018-08-28T07:31:27.968Z,29.80
2018-08-28T07:32:06.062Z,29.80
2018-08-28T07:32:44.230Z,29.80
2018-08-28T07:33:22.315Z,29.80
2018-08-28T07:34:00.260Z,29.80
2018-08-28T07:34:38.267Z,29.80
2018-08-28T07:35:16.106Z,29.90
2018-08-28T07:35:54.153Z,29.90
2018-08-28T07:36:32.043Z,30.00
2018-08-28T07:37:09.919Z,30.00
2018-08-28T07:37:47.864Z,30.00
2018-08-28T07:38:25.954Z,30.00
2018-08-28T07:39:04.362Z,30.00
2018-08-28T07:39:42.311Z,30.00
2018-08-28T07:40:20.268Z,30.00
2018-08-28T07:40:58.156Z,29.90
2018-08-28T07:41:36.121Z,29.90
2018-08-28T07:42:14.073Z,29.90
2018-08-28T07:42:52.648Z,29.90
2018-08-28T07:43:30.712Z,29.90
2018-08-28T07:44:08.656Z,29.90
2018-08-28T07:44:46.519Z,29.90
2018-08-28T07:45:24.475Z,29.90
2018-08-28T07:46:02.608Z,29.90
2018-08-28T07:46:40.574Z,29.90
2018-08-28T07:47:19.100Z,29.90
2018-08-28T07:47:57.110Z,29.90
2018-08-28T07:48:35.046Z,29.80
2018-08-28T07:49:12.868Z,29.90
2018-08-28T07:49:51.029Z,29.90
2018-08-28T07:50:29.022Z,29.90
2018-08-28T07:51:07.108Z,29.90
2018-08-28T07:51:45.031Z,29.90
2018-08-28T07:52:22.972Z,30.00
2018-08-28T07:53:01.149Z,29.90
2018-08-28T07:53:39.196Z,29.90
2018-08-28T07:54:17.198Z,29.90
2018-08-28T07:54:55.175Z,29.90
2018-08-28T07:55:33.069Z,30.00
2018-08-28T07:56:11.168Z,29.90
2018-08-28T07:56:49.088Z,30.00
2018-08-28T07:57:26.952Z,30.00
2018-08-28T07:58:05.066Z,30.00
2018-08-28T07:58:42.914Z,30.10
2018-08-28T07:59:20.963Z,30.10
2018-08-28T07:59:58.947Z,30.10
2018-08-28T08:00:36.844Z,30.10
2018-08-28T08:01:14.932Z,30.10
2018-08-28T08:01:52.852Z,30.10
2018-08-28T08:02:31.680Z,30.00
2018-08-28T08:03:09.668Z,30.00
2018-08-28T08:03:47.666Z,30.00
2018-08-28T08:04:25.626Z,30.00
2018-08-28T08:05:03.607Z,30.00
2018-08-28T08:05:41.610Z,30.00
2018-08-28T08:06:19.644Z,30.00
2018-08-28T08:06:57.639Z,30.00
2018-08-28T08:07:35.594Z,30.00
2018-08-28T08:08:13.559Z,30.00
2018-08-28T08:08:51.558Z,30.00
2018-08-28T08:09:29.527Z,30.00
2018-08-28T08:10:07.711Z,30.00
2018-08-28T08:10:45.738Z,30.00
2018-08-28T08:11:23.740Z,30.00
2018-08-28T08:12:01.578Z,30.00
2018-08-28T08:12:39.553Z,30.00
2018-08-28T08:13:17.563Z,30.00